Time;durP1;ratioP1;P1;durP2;ratioP2;P2;SDS_P1;SDS_P2;PMS_P1;PMS_P2;Temp;Humidity;BMP_temperature;BMP_pressure;BME280_temperature;BME280_humidity;BME280_pressure;Samples;Min_cycle;Max_cycle;Signal;HPM_P1;HPM_P2
2022/07/06 00:01:10;;;;;;;;;3.00;3.00;;;;;22.09;40.90;102194.47;5097961;27;45616;-68
2022/07/06 00:03:35;;;;;;;;;3.00;3.00;;;;;22.16;40.87;102208.53;5097904;27;45582;-67
2022/07/06 00:06:01;;;;;;;;;5.00;3.00;;;;;22.11;41.16;102205.09;5101656;27;45538;-68
2022/07/06 00:08:26;;;;;;;;;3.00;3.00;;;;;22.14;41.02;102200.56;5095101;27;45703;-68
2022/07/06 00:10:53;;;;;;;;;2.33;2.33;;;;;22.13;41.05;102196.13;5095107;27;46617;-69
2022/07/06 00:13:19;;;;;;;;;4.00;2.33;;;;;21.96;41.10;102168.97;5092255;27;45480;-70
2022/07/06 00:15:44;;;;;;;;;2.33;2.33;;;;;21.98;41.53;102180.50;5093830;27;45485;-68
2022/07/06 00:18:10;;;;;;;;;3.33;3.33;;;;;22.06;41.26;102194.53;5095424;27;45760;-69
2022/07/06 00:20:35;;;;;;;;;2.33;2.33;;;;;22.06;41.54;102194.53;5091529;27;45538;-72
2022/07/06 00:23:01;;;;;;;;;2.00;2.00;;;;;22.08;41.64;102195.38;5094494;27;45513;-70
2022/07/06 00:25:27;;;;;;;;;3.67;3.33;;;;;22.07;41.82;102200.72;5092130;27;45634;-68
2022/07/06 00:27:52;;;;;;;;;4.00;4.00;;;;;22.08;41.45;102199.84;5092959;27;45461;-71
2022/07/06 00:30:18;;;;;;;;;6.00;4.00;;;;;22.05;41.61;102191.91;5098493;27;46033;-70
2022/07/06 00:32:43;;;;;;;;;4.00;4.00;;;;;22.06;41.76;102196.31;5095883;27;45484;-71
2022/07/06 00:35:09;;;;;;;;;4.00;4.00;;;;;22.02;41.86;102191.06;5095097;27;45540;-70
2022/07/06 00:37:34;;;;;;;;;5.00;3.67;;;;;22.03;41.95;102205.28;5094945;27;45575;-70
2022/07/06 00:40:00;;;;;;;;;4.00;4.00;;;;;22.01;41.93;102201.75;5099248;27;45985;-71
2022/07/06 00:42:28;;;;;;;;;5.00;3.00;;;;;21.98;42.00;102192.03;5094784;27;45435;-69
2022/07/06 00:44:54;;;;;;;;;4.67;4.67;;;;;21.93;42.04;102185.94;5092418;27;45447;-68
2022/07/06 00:47:19;;;;;;;;;3.33;3.00;;;;;21.93;42.27;102188.59;5096577;27;45543;-70
2022/07/06 00:52:29;;;;;;;;;3.67;3.67;;;;;21.86;42.13;102173.66;5088448;27;45562;-69
2022/07/06 00:54:55;;;;;;;;;3.00;3.00;;;;;21.90;42.29;102186.00;5086290;27;45471;-69
2022/07/06 00:57:21;;;;;;;;;4.00;4.00;;;;;21.92;42.39;102201.97;5093285;27;45428;-70
2022/07/06 00:59:46;;;;;;;;;3.33;3.33;;;;;21.88;42.41;102186.94;5095154;27;46130;-70
2022/07/06 01:02:12;;;;;;;;;4.00;3.00;;;;;21.87;42.51;102190.53;5095297;27;45421;-70
2022/07/06 01:04:37;;;;;;;;;4.67;3.33;;;;;21.86;42.45;102197.66;5095482;27;45309;-66
2022/07/06 01:07:03;;;;;;;;;5.00;4.00;;;;;21.83;42.75;102199.50;5093319;27;45411;-69
2022/07/06 01:09:29;;;;;;;;;5.00;4.00;;;;;21.84;42.83;102202.13;5110069;27;47514;-69
2022/07/06 01:11:54;;;;;;;;;5.00;4.00;;;;;21.79;42.87;102191.56;5086178;27;45380;-69
2022/07/06 01:14:21;;;;;;;;;6.00;4.67;;;;;21.80;42.86;102200.44;5095947;27;45462;-69
2022/07/06 01:16:48;;;;;;;;;4.00;4.00;;;;;21.78;43.04;102195.16;5094959;27;45340;-68
2022/07/06 01:19:13;;;;;;;;;0.00;0.00;;;;;21.74;42.93;102201.47;5094775;27;45369;-67
2022/07/06 01:21:39;;;;;;;;;4.00;4.00;;;;;21.72;42.80;102195.28;5094159;27;45610;-68
2022/07/06 01:24:05;;;;;;;;;4.00;4.00;;;;;21.57;42.94;102180.50;5098894;27;45240;-66
2022/07/06 01:26:31;;;;;;;;;5.00;4.00;;;;;21.70;43.05;102204.22;5097495;27;45483;-65
2022/07/06 01:28:57;;;;;;;;;3.00;3.00;;;;;21.69;43.17;102206.03;5093049;27;46851;-69
2022/07/06 01:31:25;;;;;;;;;4.00;4.00;;;;;21.54;43.27;102183.19;5094477;27;46521;-70
2022/07/06 01:33:54;;;;;;;;;5.00;4.00;;;;;21.58;43.29;102194.69;5110661;27;45824;-68
2022/07/06 01:36:20;;;;;;;;;2.67;2.33;;;;;21.66;43.16;102194.53;5110061;27;45443;-69
2022/07/06 01:38:52;;;;;;;;;4.00;3.00;;;;;21.63;43.19;102194.59;5094134;27;45444;-70
2022/07/06 01:41:18;;;;;;;;;5.00;4.00;;;;;21.61;43.37;102191.94;5094025;27;45450;-69
2022/07/06 01:43:44;;;;;;;;;3.33;3.33;;;;;21.56;43.60;102188.50;5096962;27;45539;-70
2022/07/06 01:46:11;;;;;;;;;4.67;4.00;;;;;21.54;43.37;102195.66;5095299;27;45546;-71
2022/07/06 01:48:37;;;;;;;;;4.00;3.00;;;;;21.52;43.54;102189.47;5093920;27;46193;-70
2022/07/06 01:51:03;;;;;;;;;4.00;3.00;;;;;21.47;43.62;102192.22;5094264;27;45528;-67
2022/07/06 01:53:29;;;;;;;;;6.67;4.00;;;;;21.52;43.66;102194.81;5080691;27;45297;-69
2022/07/06 01:55:54;;;;;;;;;3.33;3.33;;;;;21.39;43.56;102178.16;5082280;27;45348;-69
2022/07/06 01:58:20;;;;;;;;;3.67;3.67;;;;;21.49;43.73;102194.88;5094579;27;45509;-64
2022/07/06 02:00:46;;;;;;;;;3.67;3.67;;;;;21.48;43.75;102193.13;5093756;27;45548;-68
2022/07/06 02:03:11;;;;;;;;;4.00;4.00;;;;;21.47;43.65;102194.03;5097439;27;45352;-67
2022/07/06 02:05:37;;;;;;;;;5.00;4.33;;;;;21.45;43.81;102188.75;5094115;27;45368;-66
2022/07/06 02:08:03;;;;;;;;;4.00;4.00;;;;;21.43;44.02;102198.56;5093794;27;45525;-66
2022/07/06 02:10:28;;;;;;;;;5.00;5.00;;;;;21.35;44.02;102181.78;5092481;27;45337;-69
2022/07/06 02:12:54;;;;;;;;;5.00;4.00;;;;;21.39;43.97;102199.47;5092295;27;45620;-68
2022/07/06 02:15:19;;;;;;;;;5.00;4.00;;;;;21.37;43.99;102196.84;5094043;27;45397;-66
2022/07/06 02:17:45;;;;;;;;;4.00;4.00;;;;;21.31;43.93;102186.31;5094448;27;45531;-65
2022/07/06 02:20:11;;;;;;;;;5.67;5.67;;;;;21.32;44.13;102184.53;5097382;27;45463;-65
2022/07/06 02:22:36;;;;;;;;;4.00;4.00;;;;;21.25;44.02;102175.78;5097568;27;45667;-66
2022/07/06 02:25:02;;;;;;;;;4.67;4.33;;;;;21.29;44.26;102198.78;5097545;27;45376;-66
2022/07/06 02:27:28;;;;;;;;;6.00;6.00;;;;;21.16;44.07;102165.28;5097598;27;45623;-69
2022/07/06 02:29:54;;;;;;;;;4.00;4.00;;;;;21.13;44.36;102166.22;5112937;27;45669;-69
2022/07/06 02:32:19;;;;;;;;;7.00;4.00;;;;;21.25;44.33;102181.09;5097491;27;45375;-65
2022/07/06 02:34:45;;;;;;;;;5.00;5.00;;;;;21.13;44.14;102166.22;5097872;27;45321;-66
2022/07/06 02:37:10;;;;;;;;;7.00;5.00;;;;;21.19;44.63;102175.91;5101442;27;45757;-70
2022/07/06 02:39:36;;;;;;;;;4.00;4.00;;;;;21.11;44.42;102165.38;5101238;27;45278;-70
2022/07/06 02:42:02;;;;;;;;;6.00;5.00;;;;;21.14;44.30;102170.66;5097816;27;45482;-70
2022/07/06 02:44:27;;;;;;;;;4.00;4.00;;;;;21.10;44.38;102168.09;5097902;27;45475;-70
2022/07/06 02:46:53;;;;;;;;;4.33;4.33;;;;;21.14;44.58;102183.97;5096972;27;45493;-69
2022/07/06 02:49:18;;;;;;;;;6.67;4.33;;;;;21.11;44.42;102176.03;5097112;27;45361;-70
2022/07/06 02:51:44;;;;;;;;;9.00;5.33;;;;;21.12;45.02;102185.78;5097114;27;45547;-66
2022/07/06 02:54:10;;;;;;;;;4.00;4.00;;;;;21.11;44.58;102192.00;5096348;27;45581;-69
2022/07/06 02:56:36;;;;;;;;;4.00;4.00;;;;;21.02;44.56;102184.19;5084920;27;45488;-69
2022/07/06 02:59:02;;;;;;;;;5.00;4.67;;;;;21.04;44.79;102195.69;5088877;27;45469;-70
2022/07/06 03:01:27;;;;;;;;;6.00;6.00;;;;;21.04;44.54;102193.03;5085331;27;45702;-69
2022/07/06 03:03:53;;;;;;;;;4.67;4.33;;;;;21.07;44.81;102197.44;5099670;27;45538;-70
2022/07/06 03:06:18;;;;;;;;;5.00;5.00;;;;;21.05;44.88;102197.47;5082491;27;46219;-70
2022/07/06 03:08:44;;;;;;;;;6.00;5.67;;;;;20.99;44.73;102192.25;5098449;27;45544;-71
2022/07/06 03:11:09;;;;;;;;;3.00;3.00;;;;;21.00;44.91;102196.69;5101092;27;45276;-70
2022/07/06 03:13:35;;;;;;;;;7.00;6.67;;;;;21.03;44.70;102201.94;5087359;27;45422;-69
2022/07/06 03:16:01;;;;;;;;;5.33;5.33;;;;;21.02;44.97;102202.84;5092710;27;45420;-71
2022/07/06 03:18:27;;;;;;;;;8.00;6.00;;;;;21.01;44.86;102205.56;5101160;27;45498;-70
2022/07/06 03:20:53;;;;;;;;;5.00;5.00;;;;;21.01;45.11;102208.22;5099899;27;45431;-68
2022/07/06 03:23:19;;;;;;;;;4.67;4.67;;;;;20.96;44.83;102197.63;5098721;27;45428;-69
2022/07/06 03:25:54;;;;;;;;;5.33;5.00;;;;;20.98;44.74;102208.28;5098872;27;45377;-69
2022/07/06 03:28:19;;;;;;;;;5.33;5.33;;;;;20.96;45.19;102201.19;5096298;27;45475;-70
2022/07/06 03:30:45;;;;;;;;;5.00;4.00;;;;;20.99;45.81;102200.25;5088411;27;45452;-72
2022/07/06 03:33:10;;;;;;;;;3.33;3.33;;;;;21.04;45.53;102205.47;5096443;27;45306;-68
2022/07/06 03:35:36;;;;;;;;;5.00;5.00;;;;;21.07;45.01;102200.09;5099358;27;46734;-71
2022/07/06 03:38:02;;;;;;;;;7.00;5.00;;;;;21.08;45.47;102210.72;5099652;27;45431;-71
2022/07/06 03:40:28;;;;;;;;;6.00;5.33;;;;;21.09;45.28;102200.94;5097559;27;45716;-70
2022/07/06 03:42:54;;;;;;;;;6.00;6.00;;;;;21.12;45.18;102211.56;5114113;27;45873;-75
2022/07/06 03:45:19;;;;;;;;;5.00;5.00;;;;;21.02;44.98;102183.31;5098150;27;45456;-70
2022/07/06 03:47:45;;;;;;;;;7.00;6.00;;;;;21.19;45.48;102210.53;5100540;27;45488;-73
2022/07/06 03:50:10;;;;;;;;;6.00;5.00;;;;;21.23;45.05;102216.69;5100658;27;45537;-71
2022/07/06 03:52:39;;;;;;;;;4.33;4.33;;;;;21.12;45.05;102193.78;5101479;27;45573;-71
2022/07/06 03:55:10;;;;;;;;;5.67;5.00;;;;;21.26;45.03;102217.50;5099629;27;45559;-68
2022/07/06 03:57:37;;;;;;;;;6.00;5.00;;;;;21.22;44.62;102204.28;5096389;27;45440;-73
2022/07/06 04:00:04;;;;;;;;;6.00;4.00;;;;;21.31;44.95;102222.75;5093641;27;45741;-72
2022/07/06 04:02:29;;;;;;;;;4.33;4.33;;;;;21.33;44.78;102218.25;5096423;27;45696;-73
2022/07/06 04:04:55;;;;;;;;;4.00;4.00;;;;;21.31;44.61;102209.44;5084537;27;45389;-71
2022/07/06 04:07:21;;;;;;;;;5.67;5.67;;;;;21.23;44.68;102201.56;5093772;27;45515;-72
2022/07/06 04:09:47;;;;;;;;;6.00;6.00;;;;;21.33;44.76;102220.91;5092131;27;45425;-73
2022/07/06 04:12:12;;;;;;;;;4.67;4.67;;;;;21.21;44.68;102205.16;5089205;27;45536;-70
2022/07/06 04:14:38;;;;;;;;;4.67;4.67;;;;;21.34;44.63;102231.56;5086491;27;45589;-70
2022/07/06 04:17:51;;;;;;;;;5.00;5.00;;;;;21.31;44.51;102215.63;5096428;27;45459;-72
2022/07/06 04:19:50;;;;;;;;;5.00;4.33;;;;;21.38;44.45;102230.59;5095099;27;45633;-65
2022/07/06 04:22:25;;;;;;;;;4.67;4.00;;;;;21.40;44.51;102227.91;5095625;27;45317;-67
2022/07/06 04:24:50;;;;;;;;;5.00;5.00;;;;;21.20;44.30;102185.66;5093591;27;46735;-66
2022/07/06 04:27:16;;;;;;;;;4.00;4.00;;;;;21.44;44.50;102220.75;5094800;27;45448;-70
2022/07/06 04:29:41;;;;;;;;;4.00;4.00;;;;;21.41;44.23;102213.69;5095534;27;45514;-71
2022/07/06 04:32:07;;;;;;;;;8.00;5.00;;;;;21.50;44.09;102225.97;5095236;27;45462;-74
2022/07/06 04:34:33;;;;;;;;;5.00;4.00;;;;;21.41;44.39;102207.50;5093839;27;45769;-71
2022/07/06 04:36:59;;;;;;;;;5.00;5.00;;;;;21.51;44.04;102228.59;5097859;27;45549;-73
2022/07/06 04:39:24;;;;;;;;;4.33;4.33;;;;;21.54;44.14;102224.97;5093684;27;45332;-71
2022/07/06 04:41:50;;;;;;;;;6.00;4.67;;;;;21.52;44.12;102219.69;5095321;27;45391;-70
2022/07/06 04:44:15;;;;;;;;;4.67;4.00;;;;;21.56;44.27;102217.84;5099400;27;46110;-72
2022/07/06 04:46:41;;;;;;;;;4.67;4.67;;;;;21.59;44.33;102220.44;5097338;27;45571;-71
2022/07/06 04:49:06;;;;;;;;;5.00;5.00;;;;;21.62;43.71;102228.38;5094981;27;45462;-70
2022/07/06 04:51:32;;;;;;;;;6.00;5.00;;;;;21.62;43.78;102209.72;5095270;27;45511;-72
2022/07/06 04:53:58;;;;;;;;;7.67;7.67;;;;;21.69;43.83;102222.03;5094113;27;46403;-69
2022/07/06 04:56:24;;;;;;;;;7.33;7.33;;;;;21.64;43.51;102207.91;5094621;27;45764;-68
2022/07/06 04:58:52;;;;;;;;;8.00;5.67;;;;;21.78;43.77;102228.94;5094824;27;45463;-66
2022/07/06 05:01:17;;;;;;;;;5.00;5.00;;;;;21.84;43.07;102227.94;5094767;27;45688;-69
2022/07/06 05:03:43;;;;;;;;;5.67;5.67;;;;;21.87;43.15;102223.41;5093145;27;46292;-65
2022/07/06 05:06:08;;;;;;;;;7.67;6.00;;;;;21.89;43.11;102221.56;5081628;27;45466;-70
2022/07/06 05:08:34;;;;;;;;;5.67;5.67;;;;;21.92;42.96;102221.50;5092993;27;45465;-70
2022/07/06 05:11:00;;;;;;;;;7.00;7.00;;;;;22.00;43.06;102229.38;5097813;27;45438;-66
2022/07/06 05:13:26;;;;;;;;;7.00;7.00;;;;;22.03;42.99;102227.50;5094383;27;45470;-72
2022/07/06 05:15:52;;;;;;;;;5.67;5.67;;;;;22.01;42.92;102223.97;5096268;27;45522;-65
2022/07/06 05:18:17;;;;;;;;;6.00;6.00;;;;;22.11;42.72;102229.09;5097831;27;45502;-66
2022/07/06 05:20:44;;;;;;;;;7.33;5.00;;;;;22.15;42.79;102222.78;5095995;27;45452;-66
2022/07/06 05:23:09;;;;;;;;;6.00;6.00;;;;;22.09;42.68;102214.91;5094044;27;46719;-72
2022/07/06 05:25:36;;;;;;;;;7.00;5.00;;;;;22.20;42.44;102227.13;5094537;27;45528;-69
2022/07/06 05:28:02;;;;;;;;;8.33;6.00;;;;;22.22;42.49;102221.78;5098882;27;45358;-70
2022/07/06 05:30:28;;;;;;;;;5.33;4.67;;;;;22.28;42.36;102220.75;5099079;27;45525;-70
2022/07/06 05:32:53;;;;;;;;;7.00;7.00;;;;;22.35;42.17;102222.34;5098447;27;45565;-72
2022/07/06 05:35:19;;;;;;;;;5.33;5.33;;;;;22.39;41.78;102218.72;5095506;27;45602;-68
2022/07/06 05:37:45;;;;;;;;;5.00;5.00;;;;;22.40;42.30;102224.03;5094381;27;45393;-70
2022/07/06 05:40:11;;;;;;;;;5.00;5.00;;;;;22.42;41.56;102216.84;5095178;27;45423;-68
2022/07/06 05:42:37;;;;;;;;;5.67;5.00;;;;;22.49;41.56;102211.34;5094555;27;46164;-70
2022/07/06 05:45:04;;;;;;;;;5.00;5.00;;;;;22.58;41.32;102219.13;5092459;27;45542;-65
2022/07/06 05:50:17;;;;;;;;;8.00;6.00;;;;;22.70;41.17;102231.31;5094669;27;45372;-64
2022/07/06 05:52:44;;;;;;;;;6.00;6.00;;;;;22.72;41.15;102229.47;5094823;27;45396;-66
2022/07/06 05:55:11;;;;;;;;;5.00;5.00;;;;;22.76;40.86;102225.81;5096918;27;45563;-72
2022/07/06 05:57:38;;;;;;;;;7.67;6.67;;;;;22.82;41.12;102233.66;5094137;27;45468;-65
2022/07/06 06:00:05;;;;;;;;;7.00;6.67;;;;;22.87;40.55;102234.41;5094324;27;45452;-70
2022/07/06 06:02:38;;;;;;;;;6.00;5.00;;;;;22.84;40.70;102243.41;5094154;27;46749;-68
2022/07/06 06:05:06;;;;;;;;;6.00;5.00;;;;;22.92;40.80;102243.22;5081146;27;45978;-70
2022/07/06 06:07:34;;;;;;;;;7.00;5.33;;;;;23.02;40.25;102241.22;5096957;27;45496;-70
2022/07/06 06:10:03;;;;;;;;;5.00;5.00;;;;;23.05;40.30;102239.31;5097439;27;45538;-70
2022/07/06 06:12:28;;;;;;;;;7.00;6.00;;;;;23.05;39.93;102231.31;5095349;27;46383;-72
2022/07/06 06:14:54;;;;;;;;;5.67;5.67;;;;;23.09;40.10;102226.78;5093306;27;45514;-64
2022/07/06 06:17:19;;;;;;;;;9.67;6.33;;;;;23.17;39.92;102247.94;5093415;27;45529;-65
2022/07/06 06:19:45;;;;;;;;;5.00;5.00;;;;;23.19;39.67;102246.13;5095486;27;45625;-64
2022/07/06 06:22:10;;;;;;;;;4.00;4.00;;;;;23.15;39.49;102223.91;5099115;27;45404;-67
2022/07/06 06:24:45;;;;;;;;;5.00;5.00;;;;;23.33;39.40;102251.97;5098898;27;45325;-74
2022/07/06 06:27:11;;;;;;;;;7.00;6.00;;;;;23.32;38.79;102241.28;5111240;27;45440;-66
2022/07/06 06:29:38;;;;;;;;;6.00;6.00;;;;;23.39;39.00;102238.41;5093892;27;45343;-67
2022/07/06 06:32:05;;;;;;;;;5.67;5.00;;;;;23.48;38.67;102245.31;5093452;27;45377;-70
2022/07/06 06:34:34;;;;;;;;;6.00;6.00;;;;;23.43;38.54;102217.81;5092914;27;45342;-73
2022/07/06 06:36:59;;;;;;;;;5.00;5.00;;;;;23.66;38.37;102243.91;5112270;27;45449;-64
2022/07/06 06:39:25;;;;;;;;;6.67;6.67;;;;;23.65;37.80;102242.16;5093581;27;45555;-65
2022/07/06 06:42:00;;;;;;;;;6.00;6.00;;;;;23.40;37.41;102242.84;5096128;27;46130;-72
2022/07/06 06:44:25;;;;;;;;;7.00;5.67;;;;;23.24;37.70;102244.19;5094123;27;45370;-63
2022/07/06 06:46:54;;;;;;;;;6.33;5.33;;;;;23.00;38.30;102243.06;5093667;27;45351;-67
2022/07/06 06:49:20;;;;;;;;;5.00;5.00;;;;;22.98;38.16;102248.41;5095730;27;45474;-68
2022/07/06 06:51:45;;;;;;;;;7.00;5.67;;;;;22.93;38.18;102255.66;5093328;27;46141;-65
2022/07/06 06:54:11;;;;;;;;;8.33;7.00;;;;;22.83;37.95;102252.34;5094578;27;45461;-71
2022/07/06 06:56:37;;;;;;;;;7.67;5.00;;;;;22.72;38.38;102233.03;5094857;27;45560;-65
2022/07/06 06:59:03;;;;;;;;;7.00;6.33;;;;;22.84;38.22;102259.41;5094479;27;45621;-65
2022/07/06 07:01:29;;;;;;;;;6.00;6.00;;;;;22.68;38.65;102249.16;5094872;27;46103;-64
2022/07/06 07:03:55;;;;;;;;;4.33;4.33;;;;;22.84;38.31;102254.06;5093733;27;45385;-64
2022/07/06 07:06:21;;;;;;;;;3.67;3.67;;;;;23.00;38.30;102265.28;5086941;27;45409;-70
2022/07/06 07:08:47;;;;;;;;;6.00;6.00;;;;;23.16;37.77;102251.50;5099103;27;45460;-72
2022/07/06 07:11:13;;;;;;;;;7.67;5.67;;;;;23.26;37.52;102251.25;5101648;27;45460;-71
2022/07/06 07:13:39;;;;;;;;;4.33;4.33;;;;;23.09;37.58;102245.47;5101185;27;45399;-72
2022/07/06 07:16:05;;;;;;;;;6.00;6.00;;;;;23.38;37.83;102271.41;5114557;27;45587;-72
2022/07/06 07:18:32;;;;;;;;;6.00;6.00;;;;;23.54;37.28;102271.88;5100587;27;45245;-73
2022/07/06 07:20:58;;;;;;;;;5.33;5.33;;;;;23.61;36.91;102273.47;5097079;27;46411;-71
2022/07/06 07:23:24;;;;;;;;;5.00;5.00;;;;;23.49;37.00;102229.22;5096740;27;45954;-69
2022/07/06 07:25:49;;;;;;;;;10.33;7.00;;;;;23.78;36.49;102250.75;5096609;27;45380;-74
2022/07/06 07:28:15;;;;;;;;;5.67;5.00;;;;;23.87;36.27;102254.03;5096839;27;45321;-71
2022/07/06 07:30:41;;;;;;;;;6.00;6.00;;;;;23.68;37.02;102250.97;5097560;27;46294;-72
2022/07/06 07:33:07;;;;;;;;;7.00;7.00;;;;;23.69;36.68;102263.41;5096272;27;45718;-73
2022/07/06 07:35:32;;;;;;;;;7.33;5.33;;;;;23.56;36.96;102248.63;5096906;27;45330;-71
2022/07/06 07:37:58;;;;;;;;;6.67;5.00;;;;;23.76;36.72;102269.50;5096854;27;45594;-73
2022/07/06 07:40:24;;;;;;;;;6.00;5.00;;;;;23.86;36.77;102254.91;5097252;27;45304;-68
2022/07/06 07:42:49;;;;;;;;;5.67;5.67;;;;;23.85;36.28;102241.63;5096699;27;45517;-69
2022/07/06 07:45:15;;;;;;;;;4.00;4.00;;;;;23.89;36.21;102243.25;5096375;27;45357;-72
2022/07/06 07:47:41;;;;;;;;;7.00;5.00;;;;;23.74;35.76;102216.97;5112666;27;45621;-72
2022/07/06 07:50:07;;;;;;;;;6.00;5.00;;;;;23.97;35.84;102251.94;5096045;27;45611;-68
2022/07/06 07:52:33;;;;;;;;;4.67;4.67;;;;;24.01;35.77;102242.88;5096135;27;45758;-69
2022/07/06 07:54:59;;;;;;;;;5.00;5.00;;;;;24.16;35.99;102249.59;5091834;27;45543;-69
2022/07/06 07:57:25;;;;;;;;;5.33;4.33;;;;;24.23;35.36;102242.25;5079631;27;45523;-72
2022/07/06 07:59:51;;;;;;;;;7.00;6.00;;;;;;;;5094458;27;46043;-69
2022/07/06 08:02:17;;;;;;;;;6.33;5.00;;;;;24.42;35.60;102253.25;5093858;27;45564;-73
2022/07/06 08:04:42;;;;;;;;;8.33;5.67;;;;;24.32;36.76;102220.50;5111063;27;45501;-65
2022/07/06 08:07:08;;;;;;;;;5.33;5.00;;;;;24.52;36.32;102239.53;5098014;27;45610;-68
2022/07/06 08:09:33;;;;;;;;;4.33;4.33;;;;;24.51;35.92;102227.06;5097219;27;45393;-65
2022/07/06 08:12:03;;;;;;;;;6.00;6.00;;;;;24.62;35.78;102225.84;5095591;27;45305;-69
2022/07/06 08:14:32;;;;;;;;;7.67;6.00;;;;;24.72;34.88;102229.94;5101635;27;45390;-67
2022/07/06 08:16:57;;;;;;;;;5.00;5.00;;;;;24.85;35.41;102250.06;5100169;27;45490;-65
2022/07/06 08:19:23;;;;;;;;;5.00;5.00;;;;;24.88;34.61;102228.50;5100273;27;45430;-66
2022/07/06 08:21:48;;;;;;;;;5.00;5.00;;;;;24.92;34.85;102234.66;5100140;27;45214;-70
2022/07/06 08:24:15;;;;;;;;;7.00;6.00;;;;;24.70;34.91;102200.53;5099716;27;45469;-70
2022/07/06 08:26:40;;;;;;;;;6.67;6.67;;;;;24.93;35.37;102226.53;5099855;27;45570;-69
2022/07/06 08:29:06;;;;;;;;;9.33;7.00;;;;;24.99;34.44;102233.50;5095375;27;45456;-72
2022/07/06 08:31:33;;;;;;;;;7.33;7.00;;;;;24.85;35.01;102227.75;5095889;27;45308;-68
2022/07/06 08:34:14;;;;;;;;;9.00;8.00;;;;;24.63;34.85;102212.41;5095361;27;45390;-71
2022/07/06 08:36:40;;;;;;;;;4.00;4.00;;;;;24.56;35.85;102226.94;5095169;27;45460;-69
2022/07/06 08:39:06;;;;;;;;;7.67;7.67;;;;;24.60;36.02;102241.06;5094986;27;45427;-70
2022/07/06 08:41:31;;;;;;;;;5.00;5.00;;;;;24.69;35.76;102243.44;5099633;27;45459;-72
2022/07/06 08:43:57;;;;;;;;;5.67;4.67;;;;;24.57;35.78;102211.72;5114010;27;45447;-68
2022/07/06 08:46:23;;;;;;;;;6.00;6.00;;;;;24.88;36.60;102239.22;5094798;27;45701;-70
2022/07/06 08:49:00;;;;;;;;;5.67;5.67;;;;;24.76;35.71;102199.44;5094609;27;46011;-70
2022/07/06 08:51:27;;;;;;;;;6.33;5.67;;;;;24.85;36.96;102207.19;5094836;27;45397;-71
2022/07/06 08:53:54;;;;;;;;;8.00;5.67;;;;;25.16;36.04;102252.53;5093521;27;45492;-72
2022/07/06 08:56:20;;;;;;;;;7.00;5.67;;;;;25.16;36.33;102230.22;5096065;27;45487;-64
2022/07/06 08:58:45;;;;;;;;;7.00;7.00;;;;;25.33;35.83;102246.59;5097534;27;46178;-73
2022/07/06 09:01:12;;;;;;;;;7.00;6.00;;;;;25.38;35.38;102241.94;5111152;27;45502;-71
2022/07/06 09:03:40;;;;;;;;;7.33;7.00;;;;;25.44;36.91;102239.97;5097584;27;45504;-72
2022/07/06 09:06:06;;;;;;;;;7.67;6.67;;;;;25.49;35.95;102233.53;5095654;27;45427;-72
2022/07/06 09:08:32;;;;;;;;;8.00;8.00;;;;;25.54;35.57;102228.00;5094514;27;45315;-72
2022/07/06 09:10:58;;;;;;;;;7.00;5.00;;;;;25.52;35.68;102220.00;5094501;27;45421;-70
2022/07/06 09:13:24;;;;;;;;;9.67;8.00;;;;;25.39;35.92;102219.56;5111011;27;45494;-72
2022/07/06 09:15:49;;;;;;;;;10.00;8.33;;;;;25.21;34.67;102205.97;5095281;27;45367;-66
2022/07/06 09:18:19;;;;;;;;;8.33;5.67;;;;;25.25;35.11;102226.34;5095331;27;45556;-69
2022/07/06 09:20:45;;;;;;;;;5.00;5.00;;;;;25.26;34.40;102223.63;5109883;27;45649;-69
2022/07/06 09:23:16;;;;;;;;;7.00;5.67;;;;;25.15;35.60;102207.00;5094421;27;45786;-65
2022/07/06 09:25:42;;;;;;;;;6.67;5.00;;;;;25.31;35.48;102218.09;5110109;27;45754;-68
2022/07/06 09:28:07;;;;;;;;;6.00;6.00;;;;;25.24;34.43;102216.56;5093829;27;46125;-71
2022/07/06 09:30:33;;;;;;;;;6.00;6.00;;;;;25.00;34.64;102211.13;5096242;27;45474;-67
2022/07/06 09:32:59;;;;;;;;;5.00;5.00;;;;;24.90;35.14;102197.16;5098762;27;45577;-68
2022/07/06 09:35:34;;;;;;;;;4.67;4.67;;;;;25.04;35.00;102220.81;5094335;27;45512;-71
2022/07/06 09:38:04;;;;;;;;;4.33;3.67;;;;;25.02;34.16;102187.81;5094548;27;46295;-70
2022/07/06 09:40:33;;;;;;;;;4.00;4.00;;;;;25.25;33.76;102221.88;5096482;27;45432;-71
2022/07/06 09:43:18;;;;;;;;;4.67;4.33;;;;;25.21;32.77;102204.16;5094167;27;45944;-71
2022/07/06 09:45:52;;;;;;;;;5.33;3.67;;;;;25.21;32.74;102208.66;5092568;27;45465;-68
2022/07/06 09:48:23;;;;;;;;;4.67;4.33;;;;;25.16;34.01;102216.81;5109662;27;46708;-73
2022/07/06 09:50:53;;;;;;;;;6.00;4.00;;;;;25.13;34.34;102219.63;5094237;27;45362;-74
2022/07/06 09:53:20;;;;;;;;;4.67;4.67;;;;;25.22;33.91;102219.28;5095057;27;45299;-70
2022/07/06 09:55:51;;;;;;;;;5.00;5.00;;;;;25.20;34.12;102207.78;5098757;27;45288;-70
2022/07/06 09:58:18;;;;;;;;;5.00;5.00;;;;;25.25;33.83;102210.25;5093330;27;45649;-72
2022/07/06 10:00:45;;;;;;;;;4.00;4.00;;;;;25.36;33.29;102217.00;5094931;27;45937;-70
2022/07/06 10:03:12;;;;;;;;;5.00;5.00;;;;;25.37;33.09;102215.22;5096946;27;45479;-66
2022/07/06 10:05:39;;;;;;;;;3.67;3.67;;;;;25.50;32.94;102229.91;5079798;27;45406;-68
2022/07/06 10:08:09;;;;;;;;;4.00;4.00;;;;;25.48;32.90;102210.28;5093648;27;45582;-66
2022/07/06 10:10:36;;;;;;;;;5.67;5.00;;;;;25.63;33.21;102221.38;5093973;27;45995;-67
2022/07/06 10:13:05;;;;;;;;;5.00;4.67;;;;;25.64;33.53;102218.66;5094201;27;45289;-70
2022/07/06 10:15:31;;;;;;;;;5.00;4.00;;;;;25.73;33.37;102220.13;5094447;27;45680;-69
2022/07/06 10:17:58;;;;;;;;;4.67;4.67;;;;;25.65;33.43;102196.28;5095563;27;45420;-68
2022/07/06 10:20:28;;;;;;;;;7.00;5.00;;;;;25.80;33.75;102201.03;5095583;27;45593;-72
2022/07/06 10:22:57;;;;;;;;;5.00;5.00;;;;;25.97;33.11;102218.31;5093783;27;45707;-69
2022/07/06 10:25:24;;;;;;;;;5.00;4.00;;;;;25.97;33.02;102223.69;5093685;27;45657;-68
2022/07/06 10:27:52;;;;;;;;;7.33;5.00;;;;;25.97;33.27;102212.97;5093313;27;46095;-65
2022/07/06 10:30:18;;;;;;;;;6.33;5.00;;;;;26.06;34.57;102207.22;5093490;27;45330;-65
2022/07/06 10:32:45;;;;;;;;;6.00;6.00;;;;;26.14;33.09;102212.28;5093512;27;45937;-68
2022/07/06 10:35:12;;;;;;;;;4.67;4.67;;;;;26.13;33.09;102208.72;5094093;27;45471;-69
2022/07/06 10:37:44;;;;;;;;;7.00;5.00;;;;;26.09;33.55;102193.66;5093273;27;46275;-71
2022/07/06 10:43:06;;;;;;;;;6.00;4.67;;;;;26.17;33.71;102188.88;5096830;27;45483;-72
2022/07/06 10:45:31;;;;;;;;;8.00;5.00;;;;;26.31;33.26;102211.59;5099569;27;46117;-67
2022/07/06 10:48:12;;;;;;;;;7.33;6.00;;;;;26.41;33.30;102212.97;5097380;27;46144;-68
2022/07/06 10:50:49;;;;;;;;;7.00;5.00;;;;;26.52;33.55;102223.28;5097048;27;45496;-68
2022/07/06 10:53:17;;;;;;;;;4.00;4.00;;;;;26.70;33.05;102209.09;5099149;27;45467;-68
2022/07/06 10:55:47;;;;;;;;;5.00;4.25;;;;;26.87;31.87;102205.69;5096906;27;45408;-68
2022/07/06 10:58:13;;;;;;;;;5.25;5.25;;;;;26.99;32.31;102209.66;5096581;27;45737;-70
2022/07/06 11:00:50;;;;;;;;;6.25;5.00;;;;;27.09;32.21;102211.00;5097074;27;45359;-70
2022/07/06 11:03:44;;;;;;;;;6.00;6.00;;;;;27.08;31.68;102211.94;5088794;27;45397;-71
2022/07/06 11:06:14;;;;;;;;;6.75;5.50;;;;;26.97;31.75;102206.16;5077589;27;45366;-70
2022/07/06 11:08:57;;;;;;;;;6.25;6.25;;;;;26.81;32.26;102200.56;5090703;27;46365;-70
2022/07/06 11:11:26;;;;;;;;;5.00;5.00;;;;;26.73;31.99;102168.66;5084122;27;45501;-68
2022/07/06 11:14:03;;;;;;;;;6.50;5.75;;;;;27.03;31.79;102193.34;5096247;27;45530;-71
2022/07/06 11:16:36;;;;;;;;;5.50;5.50;;;;;27.07;32.10;102185.97;5096482;27;45499;-73
2022/07/06 11:19:10;;;;;;;;;6.50;5.00;;;;;27.13;31.93;102188.41;5096398;27;46274;-70
2022/07/06 11:21:37;;;;;;;;;5.75;5.00;;;;;27.24;31.90;102185.25;5099733;27;45412;-71
2022/07/06 11:24:06;;;;;;;;;6.50;5.00;;;;;27.31;31.88;102167.88;5096308;27;45385;-70
2022/07/06 11:26:40;;;;;;;;;6.50;6.50;;;;;27.53;31.86;102178.56;5097542;27;45528;-72
2022/07/06 11:29:11;;;;;;;;;6.25;4.75;;;;;27.65;31.50;102187.88;5113448;27;46542;-71
2022/07/06 11:31:39;;;;;;;;;8.67;8.33;;;;;27.67;31.21;102172.53;5100328;27;45549;-73
2022/07/06 11:34:06;;;;;;;;;7.00;6.00;;;;;27.48;31.07;102186.84;5099440;27;45432;-71